createdAt,value
2019-06-08T00:01:53.511Z,99417.53
2019-06-08T00:04:21.173Z,99407.27
2019-06-08T00:06:48.742Z,99403.23
2019-06-08T00:09:17.047Z,99428.61
2019-06-08T00:11:46.697Z,99398.55
2019-06-08T00:14:15.374Z,99404.26
2019-06-08T00:16:43.013Z,99403.23
2019-06-08T00:19:11.241Z,99403.23
2019-06-08T00:21:39.125Z,99392.48
2019-06-08T00:24:09.237Z,99396.55
2019-06-08T00:26:37.307Z,99420.56
2019-06-08T00:29:04.960Z,99419.22
2019-06-08T00:31:32.732Z,99421.41
2019-06-08T00:34:00.299Z,99422.56
2019-06-08T00:36:28.396Z,99429.80
2019-06-08T00:38:59.101Z,99429.80
2019-06-08T00:41:26.812Z,99445.08
2019-06-08T00:43:54.931Z,99445.08
2019-06-08T00:46:23.602Z,99442.58
2019-06-08T00:48:51.793Z,99458.36
2019-06-08T00:51:22.745Z,99446.77
2019-06-08T00:53:50.630Z,99446.77
2019-06-08T00:56:19.231Z,99457.34
2019-06-08T00:58:47.026Z,99445.25
2019-06-08T01:01:14.841Z,99442.91
2019-06-08T01:03:43.280Z,99442.91
2019-06-08T01:06:11.787Z,99453.31
2019-06-08T01:08:39.540Z,99456.02
2019-06-08T01:11:07.188Z,99462.70
2019-06-08T01:13:35.189Z,99462.70
2019-06-08T01:16:02.688Z,99464.39
2019-06-08T01:18:30.901Z,99464.39
2019-06-08T01:20:58.862Z,99466.24
2019-06-08T01:23:27.902Z,99471.77
2019-06-08T01:25:55.521Z,99471.77
2019-06-08T01:28:23.963Z,99468.08
2019-06-08T01:30:52.070Z,99482.84
2019-06-08T01:33:20.399Z,99479.98
2019-06-08T01:35:48.108Z,99479.98
2019-06-08T01:38:15.779Z,99474.59
2019-06-08T01:40:43.851Z,99476.95
2019-06-08T01:43:11.468Z,99476.95
2019-06-08T01:45:39.163Z,99480.48
2019-06-08T01:48:19.455Z,99474.42
2019-06-08T01:50:36.034Z,99485.83
2019-06-08T01:53:03.697Z,99481.63
2019-06-08T01:55:33.358Z,99487.48
2019-06-08T01:58:01.065Z,99482.47
2019-06-08T02:00:30.655Z,99488.99
2019-06-08T02:02:58.439Z,99488.99
2019-06-08T02:05:26.149Z,99495.86
2019-06-08T02:07:53.865Z,99496.33
2019-06-08T02:10:21.525Z,99496.33
2019-06-08T02:12:49.507Z,99503.13
2019-06-08T02:15:19.873Z,99504.95
2019-06-08T02:17:47.482Z,99508.13
2019-06-08T02:20:17.798Z,99508.13
2019-06-08T02:22:45.890Z,99508.98
2019-06-08T02:25:16.207Z,99509.16
2019-06-08T02:27:44.262Z,99509.16
2019-06-08T02:30:11.844Z,99509.83
2019-06-08T02:32:42.981Z,99497.12
2019-06-08T02:35:10.638Z,99497.12
2019-06-08T02:37:39.772Z,99510.35
2019-06-08T02:40:07.704Z,99503.16
2019-06-08T02:42:40.227Z,99514.25
2019-06-08T02:45:08.139Z,99509.59
2019-06-08T02:47:36.893Z,99527.55
2019-06-08T02:50:06.532Z,99539.80
2019-06-08T02:52:36.158Z,99545.32
2019-06-08T02:55:03.595Z,99545.32
2019-06-08T02:57:35.598Z,99541.81
2019-06-08T03:00:06.449Z,99551.05
2019-06-08T03:02:36.262Z,99555.26
2019-06-08T03:05:04.080Z,99561.30
2019-06-08T03:07:32.247Z,99552.23
2019-06-08T03:10:00.127Z,99555.25
2019-06-08T03:12:31.111Z,99555.25
2019-06-08T03:14:59.540Z,99552.75
2019-06-08T03:17:27.306Z,99556.28
2019-06-08T03:19:54.971Z,99560.83
2019-06-08T03:22:22.740Z,99577.45
2019-06-08T03:24:51.209Z,99583.98
2019-06-08T03:27:18.907Z,99583.98
2019-06-08T03:29:47.165Z,99572.94
2019-06-08T03:32:15.236Z,99581.81
2019-06-08T03:34:53.701Z,99581.81
2019-06-08T03:37:12.288Z,99598.29
2019-06-08T03:39:41.381Z,99577.30
2019-06-08T03:42:12.864Z,99591.21
2019-06-08T03:44:42.819Z,99591.21
2019-06-08T03:47:11.886Z,99587.70
2019-06-08T03:49:47.538Z,99596.25
2019-06-08T03:52:09.253Z,99603.27
2019-06-08T03:54:40.689Z,99603.27
2019-06-08T03:57:10.022Z,99607.96
2019-06-08T03:59:41.070Z,99626.90
2019-06-08T04:02:09.711Z,99625.38
2019-06-08T04:04:37.874Z,99625.38
2019-06-08T04:07:06.886Z,99622.69
2019-06-08T04:09:34.538Z,99622.69
2019-06-08T04:12:03.415Z,99630.89
2019-06-08T04:14:31.116Z,99622.32
2019-06-08T04:17:00.374Z,99607.86
2019-06-08T04:19:28.140Z,99607.86
2019-06-08T04:21:55.728Z,99639.05
2019-06-08T04:24:23.369Z,99639.05
2019-06-08T04:26:52.752Z,99634.02
2019-06-08T04:29:20.526Z,99634.02
2019-06-08T04:31:50.003Z,99629.92
2019-06-08T04:34:17.582Z,99629.92
2019-06-08T04:36:46.408Z,99634.95
2019-06-08T04:39:14.904Z,99644.00
2019-06-08T04:41:43.160Z,99644.00
2019-06-08T04:44:12.267Z,99660.40
2019-06-08T04:46:40.771Z,99663.26
2019-06-08T04:49:08.976Z,99652.19
2019-06-08T04:51:36.651Z,99659.05
2019-06-08T04:54:04.824Z,99648.98
2019-06-08T04:56:32.382Z,99669.59
2019-06-08T04:59:00.111Z,99669.59
2019-06-08T05:01:28.117Z,99664.89
2019-06-08T05:03:55.767Z,99690.03
2019-06-08T05:06:25.969Z,99690.18
2019-06-08T05:08:53.560Z,99690.18
2019-06-08T05:11:21.665Z,99702.40
2019-06-08T05:13:49.860Z,99695.69
2019-06-08T05:16:17.620Z,99689.50
2019-06-08T05:18:45.334Z,99701.57
2019-06-08T05:21:13.411Z,99696.21
2019-06-08T05:23:41.364Z,99712.30
2019-06-08T05:26:09.266Z,99704.73
2019-06-08T05:28:36.907Z,99704.73
2019-06-08T05:31:04.577Z,99703.73
2019-06-08T05:33:32.227Z,99702.91
2019-06-08T05:35:59.976Z,99706.59
2019-06-08T05:38:30.624Z,99707.28
2019-06-08T05:40:58.297Z,99712.49
2019-06-08T05:43:26.055Z,99715.00
2019-06-08T05:45:53.812Z,99721.94
2019-06-08T05:48:21.871Z,99721.94
2019-06-08T05:51:00.399Z,99729.27
2019-06-08T05:53:18.849Z,99733.73
2019-06-08T05:55:46.511Z,99732.02
2019-06-08T05:58:14.677Z,99732.02
2019-06-08T06:00:42.265Z,99735.22
2019-06-08T06:03:09.955Z,99735.88
2019-06-08T06:05:37.960Z,99735.56
2019-06-08T06:08:18.019Z,99746.70
2019-06-08T06:10:38.213Z,99746.70
2019-06-08T06:13:06.339Z,99758.80
2019-06-08T06:15:33.994Z,99740.35
2019-06-08T06:18:01.653Z,99749.41
2019-06-08T06:20:32.207Z,99750.17
2019-06-08T06:22:59.993Z,99750.17
2019-06-08T06:25:27.715Z,99771.75
2019-06-08T06:27:55.755Z,99771.75
2019-06-08T06:30:23.485Z,99748.79
2019-06-08T06:32:51.937Z,99750.17
2019-06-08T06:35:19.913Z,99770.84
2019-06-08T06:37:47.814Z,99770.84
2019-06-08T06:40:15.302Z,99758.98
2019-06-08T06:42:44.061Z,99777.90
2019-06-08T06:45:11.630Z,99774.94
2019-06-08T06:47:39.097Z,99765.04
2019-06-08T06:50:06.958Z,99765.04
2019-06-08T06:52:34.531Z,99787.55
2019-06-08T06:55:02.114Z,99787.55
2019-06-08T06:57:30.028Z,99797.59
2019-06-08T06:59:57.587Z,99796.55
2019-06-08T07:02:25.213Z,99818.87
2019-06-08T07:04:56.312Z,99803.23
2019-06-08T07:07:22.245Z,99805.63
2019-06-08T07:09:50.527Z,99816.37
2019-06-08T07:12:18.782Z,99829.47
2019-06-08T07:14:47.000Z,99832.34
2019-06-08T07:17:14.899Z,99832.34
2019-06-08T07:19:44.156Z,99839.63
2019-06-08T07:22:11.683Z,99845.30
2019-06-08T07:24:39.337Z,99845.30
2019-06-08T07:27:08.088Z,99853.66
2019-06-08T07:29:35.722Z,99840.11
2019-06-08T07:32:03.292Z,99862.13
2019-06-08T07:34:31.152Z,99862.13
2019-06-08T07:36:59.565Z,99851.45
2019-06-08T07:39:27.222Z,99873.30
2019-06-08T07:41:56.157Z,99873.30
2019-06-08T07:44:23.729Z,99868.35
2019-06-08T07:46:51.444Z,99880.67
2019-06-08T07:49:19.359Z,99881.16
2019-06-08T07:51:58.894Z,99881.16
2019-06-08T07:54:19.075Z,99857.16
2019-06-08T07:56:46.869Z,99868.97
2019-06-08T07:59:17.256Z,99868.97
2019-06-08T08:01:44.824Z,99886.16
2019-06-08T08:04:12.714Z,99886.16
2019-06-08T08:06:44.821Z,99879.31
2019-06-08T08:09:12.435Z,99885.19
2019-06-08T08:11:40.297Z,99880.66
2019-06-08T08:14:07.868Z,99908.78
2019-06-08T08:16:35.332Z,99892.95
2019-06-08T08:19:03.176Z,99896.47
2019-06-08T08:21:30.774Z,99894.15
2019-06-08T08:24:00.243Z,99908.41
2019-06-08T08:26:34.247Z,99919.70
2019-06-08T08:29:03.062Z,99919.70
2019-06-08T08:31:29.365Z,99928.09
2019-06-08T08:34:04.393Z,99928.09
2019-06-08T08:36:29.088Z,99928.83
2019-06-08T08:39:00.230Z,99928.83
2019-06-08T08:41:32.752Z,99929.19
2019-06-08T08:44:02.847Z,99932.36
2019-06-08T08:46:29.436Z,99935.88
2019-06-08T08:49:05.973Z,99930.47
2019-06-08T08:51:28.686Z,99930.47
2019-06-08T08:54:02.017Z,99935.16
2019-06-08T08:56:28.251Z,99925.73
2019-06-08T08:58:59.155Z,99930.96
2019-06-08T09:01:28.773Z,99935.39
2019-06-08T09:04:00.934Z,99935.39
2019-06-08T09:06:27.824Z,99945.83
2019-06-08T09:08:55.855Z,99959.94
2019-06-08T09:11:29.898Z,99964.84
2019-06-08T09:13:59.285Z,99966.88
2019-06-08T09:16:30.600Z,99975.81
2019-06-08T09:19:04.077Z,99974.78
2019-06-08T09:21:33.618Z,99956.11
2019-06-08T09:24:03.861Z,99978.34
2019-06-08T09:26:31.409Z,99968.62
2019-06-08T09:29:05.023Z,99968.62
2019-06-08T09:31:31.560Z,99977.19
2019-06-08T09:34:08.623Z,99980.73
2019-06-08T09:36:28.846Z,99980.73
2019-06-08T09:38:59.640Z,99998.43
2019-06-08T09:41:30.879Z,99998.43
2019-06-08T09:43:58.194Z,99988.81
2019-06-08T09:46:27.685Z,99999.61
2019-06-08T09:49:07.626Z,100006.53
2019-06-08T09:51:30.121Z,100002.83
2019-06-08T09:54:03.736Z,100003.50
2019-06-08T09:56:30.075Z,100016.25
2019-06-08T09:59:01.261Z,100006.69
2019-06-08T10:01:30.216Z,100010.56
2019-06-08T10:04:00.848Z,100001.08
2019-06-08T10:06:27.271Z,100012.12
2019-06-08T10:08:56.231Z,100034.73
2019-06-08T10:11:27.927Z,100034.73
2019-06-08T10:13:54.729Z,100019.25
2019-06-08T10:16:32.335Z,100019.25
2019-06-08T10:19:03.584Z,100027.16
2019-06-08T10:21:33.106Z,100026.98
2019-06-08T10:24:02.723Z,100020.15
2019-06-08T10:26:30.155Z,100025.38
2019-06-08T10:29:03.623Z,100029.11
2019-06-08T10:31:39.847Z,100038.81
2019-06-08T10:34:03.597Z,100045.80
2019-06-08T10:36:31.379Z,100045.80
2019-06-08T10:39:02.768Z,100041.44
2019-06-08T10:41:28.427Z,100048.19
2019-06-08T10:43:57.127Z,100048.19
2019-06-08T10:46:25.053Z,100050.68
2019-06-08T10:48:53.053Z,100053.70
2019-06-08T10:51:20.698Z,100053.70
2019-06-08T10:53:52.702Z,100046.80
2019-06-08T10:56:18.824Z,100046.83
2019-06-08T10:58:49.474Z,100052.92
2019-06-08T11:01:18.598Z,100047.72
2019-06-08T11:03:45.281Z,100052.45
2019-06-08T11:06:13.574Z,100073.01
2019-06-08T11:08:41.622Z,100073.01
2019-06-08T11:11:12.131Z,100065.10
2019-06-08T11:13:39.721Z,100072.67
2019-06-08T11:16:12.794Z,100053.71
2019-06-08T11:18:39.112Z,100053.71
2019-06-08T11:21:09.867Z,100070.29
2019-06-08T11:23:41.594Z,100078.34
2019-06-08T11:26:19.159Z,100064.14
2019-06-08T11:28:40.345Z,100077.50
2019-06-08T11:31:11.963Z,100062.11
2019-06-08T11:33:39.050Z,100062.11
2019-06-08T11:36:12.722Z,100075.84
2019-06-08T11:38:38.222Z,100074.45
2019-06-08T11:41:13.047Z,100083.42
2019-06-08T11:43:38.163Z,100078.95
2019-06-08T11:46:06.643Z,100098.99
2019-06-08T11:48:34.291Z,100098.99
2019-06-08T11:51:06.701Z,100099.57
2019-06-08T11:53:31.397Z,100100.28
2019-06-08T11:56:02.690Z,100100.28
2019-06-08T11:58:30.739Z,100091.23
2019-06-08T12:01:01.903Z,100096.44
2019-06-08T12:03:30.455Z,100088.99
2019-06-08T12:05:58.352Z,100097.50
2019-06-08T12:08:29.153Z,100092.38
2019-06-08T12:11:01.245Z,100108.44
2019-06-08T12:13:27.787Z,100141.77
2019-06-08T12:15:55.764Z,100129.78
2019-06-08T12:18:23.372Z,100129.78
2019-06-08T12:20:50.907Z,100112.35
2019-06-08T12:23:21.786Z,100120.23
2019-06-08T12:25:49.397Z,100118.36
2019-06-08T12:28:17.886Z,100118.36
2019-06-08T12:30:47.693Z,100119.85
2019-06-08T12:33:22.832Z,100129.83
2019-06-08T12:35:49.687Z,100128.91
2019-06-08T12:38:18.938Z,100143.98
2019-06-08T12:40:49.605Z,100146.08
2019-06-08T12:43:18.911Z,100146.08
2019-06-08T12:45:49.085Z,100138.55
2019-06-08T12:48:22.930Z,100138.55
2019-06-08T12:50:47.972Z,100149.20
2019-06-08T12:53:23.196Z,100151.58
2019-06-08T12:55:51.104Z,100150.44
2019-06-08T12:58:21.983Z,100143.84
2019-06-08T13:00:50.453Z,100143.84
2019-06-08T13:03:21.062Z,100156.66
2019-06-08T13:05:48.669Z,100156.66
2019-06-08T13:08:20.063Z,100155.78
2019-06-08T13:10:50.176Z,100163.75
2019-06-08T13:13:19.941Z,100163.75
2019-06-08T13:15:48.398Z,100169.33
2019-06-08T13:18:17.641Z,100157.60
2019-06-08T13:20:45.363Z,100157.13
2019-06-08T13:23:13.235Z,100155.47
2019-06-08T13:25:43.820Z,100155.47
2019-06-08T13:28:15.205Z,100169.91
2019-06-08T13:30:39.922Z,100175.59
2019-06-08T13:33:08.099Z,100165.81
2019-06-08T13:35:35.946Z,100175.56
2019-06-08T13:38:03.787Z,100166.03
2019-06-08T13:40:31.354Z,100161.48
2019-06-08T13:42:59.059Z,100169.30
2019-06-08T13:45:28.040Z,100167.91
2019-06-08T13:47:55.650Z,100161.48
2019-06-08T13:50:25.281Z,100162.25
2019-06-08T13:52:53.090Z,100149.41
2019-06-08T13:55:40.390Z,100169.94
2019-06-08T13:57:54.173Z,100169.94
2019-06-08T14:00:23.676Z,100168.50
2019-06-08T14:02:51.986Z,100189.95
2019-06-08T14:05:25.756Z,100189.95
2019-06-08T14:07:54.912Z,100182.91
2019-06-08T14:10:24.099Z,100196.48
2019-06-08T14:12:55.074Z,100194.06
2019-06-08T14:15:23.408Z,100192.56
2019-06-08T14:17:54.029Z,100178.51
2019-06-08T14:20:24.196Z,100175.70
2019-06-08T14:22:53.997Z,100177.33
2019-06-08T14:25:22.953Z,100159.09
2019-06-08T14:27:51.151Z,100176.53
2019-06-08T14:30:20.551Z,100176.53
2019-06-08T14:32:50.814Z,100189.23
2019-06-08T14:35:20.926Z,100181.48
2019-06-08T14:37:48.178Z,100161.52
2019-06-08T14:40:17.221Z,100160.56
2019-06-08T14:42:44.886Z,100165.33
2019-06-08T14:45:12.340Z,100158.64
2019-06-08T14:47:40.197Z,100168.92
2019-06-08T14:50:08.058Z,100164.92
2019-06-08T14:52:37.938Z,100169.13
2019-06-08T14:55:18.740Z,100174.22
2019-06-08T14:57:48.173Z,100174.22
2019-06-08T15:00:18.834Z,100191.30
2019-06-08T15:02:45.294Z,100180.02
2019-06-08T15:05:13.227Z,100191.95
2019-06-08T15:07:41.172Z,100191.95
2019-06-08T15:10:28.039Z,100210.88
2019-06-08T15:12:57.581Z,100179.34
2019-06-08T15:15:25.698Z,100179.34
2019-06-08T15:17:53.916Z,100178.59
2019-06-08T15:20:21.983Z,100170.53
2019-06-08T15:22:49.524Z,100170.53
2019-06-08T15:25:20.496Z,100174.48
2019-06-08T15:27:48.390Z,100201.34
2019-06-08T15:30:21.117Z,100209.66
2019-06-08T15:32:49.660Z,100209.66
2019-06-08T15:35:18.144Z,100208.58
2019-06-08T15:37:47.748Z,100212.26
2019-06-08T15:40:17.562Z,100212.26
2019-06-08T15:42:44.543Z,100226.80
2019-06-08T15:45:13.223Z,100346.18
2019-06-08T15:47:44.094Z,100346.18
2019-06-08T15:50:13.759Z,100345.83
2019-06-08T15:52:41.390Z,100320.05
2019-06-08T15:55:11.255Z,100300.45
2019-06-08T15:57:41.017Z,100303.26
2019-06-08T16:00:10.140Z,100299.75
2019-06-08T16:02:37.295Z,100299.75
2019-06-08T16:05:04.928Z,100294.16
2019-06-08T16:07:35.702Z,100294.16
2019-06-08T16:10:03.682Z,100278.47
2019-06-08T16:12:33.057Z,100274.55
2019-06-08T16:15:00.482Z,100277.73
2019-06-08T16:17:29.245Z,100277.73
2019-06-08T16:19:56.874Z,100284.43
2019-06-08T16:22:27.623Z,100284.43
2019-06-08T16:24:55.557Z,100281.83
2019-06-08T16:27:23.131Z,100294.73
2019-06-08T16:29:50.989Z,100285.77
2019-06-08T16:32:18.851Z,100306.97
2019-06-08T16:34:46.446Z,100306.97
2019-06-08T16:37:18.667Z,100307.00
2019-06-08T16:39:46.597Z,100307.00
2019-06-08T16:42:14.504Z,100308.00
2019-06-08T16:44:43.508Z,100304.52
2019-06-08T16:47:16.019Z,100304.52
2019-06-08T16:49:43.630Z,100303.22
2019-06-08T16:52:11.233Z,100314.00
2019-06-08T16:54:44.996Z,100314.00
2019-06-08T16:57:16.052Z,100311.40
2019-06-08T16:59:39.354Z,100307.95
2019-06-08T17:02:07.255Z,100317.39
2019-06-08T17:04:37.211Z,100315.36
2019-06-08T17:07:04.801Z,100316.78
2019-06-08T17:09:34.145Z,100323.17
2019-06-08T17:12:02.082Z,100323.17
2019-06-08T17:14:29.986Z,100327.72
2019-06-08T17:16:57.901Z,100327.92
2019-06-08T17:19:25.774Z,100327.92
2019-06-08T17:21:53.390Z,100324.77
2019-06-08T17:24:21.395Z,100324.77
2019-06-08T17:26:48.981Z,100343.48
2019-06-08T17:29:19.489Z,100347.91
2019-06-08T17:31:51.224Z,100347.91
2019-06-08T17:34:40.290Z,100366.70
2019-06-08T17:37:07.857Z,100366.70
2019-06-08T17:39:42.114Z,100381.39
2019-06-08T17:42:11.984Z,100370.05
2019-06-08T17:44:40.370Z,100370.05
2019-06-08T17:47:08.253Z,100372.04
2019-06-08T17:49:43.931Z,100372.04
2019-06-08T17:52:07.378Z,100378.00
2019-06-08T17:54:35.187Z,100381.97
2019-06-08T17:57:04.417Z,100374.17
2019-06-08T17:59:35.302Z,100371.34
2019-06-08T18:02:01.502Z,100371.34
2019-06-08T18:04:40.978Z,100376.73
2019-06-08T18:07:08.822Z,100388.69
2019-06-08T18:09:40.682Z,100404.54
2019-06-08T18:12:08.326Z,100406.53
2019-06-08T18:14:40.473Z,100414.36
2019-06-08T18:17:13.425Z,100418.14
2019-06-08T18:19:46.206Z,100417.03
2019-06-08T18:22:18.420Z,100417.61
2019-06-08T18:24:44.665Z,100419.60
2019-06-08T18:27:12.445Z,100411.58
2019-06-08T18:29:44.414Z,100396.45
2019-06-08T18:32:12.754Z,100393.34
2019-06-08T18:34:41.539Z,100396.75
2019-06-08T18:37:09.591Z,100396.75
2019-06-08T18:39:40.905Z,100410.89
2019-06-08T18:42:10.471Z,100417.13
2019-06-08T18:44:40.746Z,100417.13
2019-06-08T18:47:09.421Z,100423.22
2019-06-08T18:49:40.164Z,100418.20
2019-06-08T18:52:09.373Z,100418.05
2019-06-08T18:54:38.461Z,100424.97
2019-06-08T18:57:17.661Z,100422.94
2019-06-08T18:59:44.318Z,100419.15
2019-06-08T19:02:08.554Z,100426.88
2019-06-08T19:04:37.776Z,100422.06
2019-06-08T19:07:07.984Z,100420.16
2019-06-08T19:09:53.200Z,100427.76
2019-06-08T19:12:20.820Z,100427.76
2019-06-08T19:14:51.954Z,100426.61
2019-06-08T19:17:21.175Z,100424.05
2019-06-08T19:19:52.403Z,100421.39
2019-06-08T19:22:23.378Z,100421.39
2019-06-08T19:24:50.990Z,100423.37
2019-06-08T19:27:18.611Z,100420.22
2019-06-08T19:29:47.573Z,100420.22
2019-06-08T19:32:17.067Z,100429.95
2019-06-08T19:34:47.722Z,100434.67
2019-06-08T19:37:17.240Z,100438.41
2019-06-08T19:39:46.441Z,100447.95
2019-06-08T19:42:35.570Z,100460.14
2019-06-08T19:45:04.884Z,100460.14
2019-06-08T19:47:24.110Z,100463.45
2019-06-08T19:49:57.789Z,100466.14
2019-06-08T19:52:25.430Z,100463.81
2019-06-08T19:54:54.035Z,100476.23
2019-06-08T19:57:21.729Z,100480.53
2019-06-08T19:59:49.684Z,100482.86
2019-06-08T20:02:17.764Z,100482.86
2019-06-08T20:04:47.247Z,100491.85
2019-06-08T20:07:17.861Z,100490.31
2019-06-08T20:09:47.592Z,100490.31
2019-06-08T20:12:18.629Z,100509.68
2019-06-08T20:14:48.424Z,100503.61
2019-06-08T20:17:17.203Z,100503.61
2019-06-08T20:19:50.816Z,100517.37
2019-06-08T20:22:18.426Z,100525.18
2019-06-08T20:24:52.087Z,100527.78
2019-06-08T20:27:20.472Z,100526.69
2019-06-08T20:29:49.692Z,100525.86
2019-06-08T20:32:18.115Z,100527.67
2019-06-08T20:34:49.049Z,100532.80
2019-06-08T20:37:14.887Z,100530.12
2019-06-08T20:39:59.604Z,100530.12
2019-06-08T20:42:19.147Z,100513.21
2019-06-08T20:44:48.669Z,100513.21
2019-06-08T20:47:20.379Z,100515.19
2019-06-08T20:49:48.899Z,100527.84
2019-06-08T20:52:14.626Z,100522.52
2019-06-08T20:54:42.785Z,100527.57
2019-06-08T20:57:10.498Z,100526.13
2019-06-08T20:59:40.049Z,100526.13
2019-06-08T21:02:08.532Z,100531.04
2019-06-08T21:04:39.302Z,100534.20
2019-06-08T21:07:13.982Z,100534.20
2019-06-08T21:09:41.542Z,100529.71
2019-06-08T21:12:09.131Z,100537.16
2019-06-08T21:14:37.985Z,100532.55
2019-06-08T21:17:07.616Z,100540.84
2019-06-08T21:19:37.033Z,100541.71
2019-06-08T21:22:08.193Z,100541.71
2019-06-08T21:24:53.995Z,100545.25
2019-06-08T21:27:23.022Z,100548.55
2019-06-08T21:29:59.359Z,100548.58
2019-06-08T21:32:21.723Z,100548.58
2019-06-08T21:34:52.018Z,100547.62
2019-06-08T21:37:20.553Z,100552.39
2019-06-08T21:39:55.301Z,100552.39
2019-06-08T21:42:23.564Z,100548.02
2019-06-08T21:44:59.415Z,100546.31
2019-06-08T21:47:27.188Z,100546.31
2019-06-08T21:49:57.490Z,100552.50
2019-06-08T21:52:30.102Z,100553.48
2019-06-08T21:55:03.952Z,100553.48
2019-06-08T21:57:33.582Z,100562.25
2019-06-08T22:00:22.019Z,100562.25
2019-06-08T22:02:37.451Z,100562.25
2019-06-08T22:05:04.898Z,100553.52
2019-06-08T22:07:32.467Z,100558.27
2019-06-08T22:10:07.838Z,100558.02
2019-06-08T22:12:39.862Z,100558.02
2019-06-08T22:15:04.653Z,100562.15
2019-06-08T22:17:32.457Z,100566.91
2019-06-08T22:20:10.167Z,100566.91
2019-06-08T22:22:29.174Z,100572.52
2019-06-08T22:25:08.241Z,100575.67
2019-06-08T22:27:37.938Z,100570.46
2019-06-08T22:30:13.356Z,100576.91
2019-06-08T22:32:38.589Z,100577.89
2019-06-08T22:35:08.007Z,100577.89
2019-06-08T22:37:37.951Z,100585.78
2019-06-08T22:40:07.938Z,100585.78
2019-06-08T22:42:40.422Z,100579.59
2019-06-08T22:45:09.339Z,100579.59
2019-06-08T22:47:38.748Z,100581.43
2019-06-08T22:50:09.503Z,100576.70
2019-06-08T22:52:37.621Z,100582.99
2019-06-08T22:55:09.704Z,100577.28
2019-06-08T22:57:40.986Z,100578.77
2019-06-08T23:00:17.263Z,100585.45
2019-06-08T23:02:40.122Z,100585.45
2019-06-08T23:05:09.378Z,100584.22
2019-06-08T23:07:37.502Z,100584.22
2019-06-08T23:10:09.078Z,100578.98
2019-06-08T23:12:38.172Z,100588.85
2019-06-08T23:15:07.767Z,100584.48
2019-06-08T23:17:38.314Z,100588.25
2019-06-08T23:20:06.192Z,100584.61
2019-06-08T23:22:34.035Z,100589.59
2019-06-08T23:25:08.880Z,100589.59
2019-06-08T23:27:34.630Z,100585.45
2019-06-08T23:30:06.075Z,100585.45
2019-06-08T23:32:32.717Z,100577.80
2019-06-08T23:35:00.741Z,100579.86
2019-06-08T23:37:28.315Z,100579.86
2019-06-08T23:39:57.969Z,100577.45
2019-06-08T23:42:27.322Z,100583.02
2019-06-08T23:44:54.760Z,100577.42
2019-06-08T23:47:27.467Z,100577.42
2019-06-08T23:49:55.079Z,100581.80
2019-06-08T23:52:22.526Z,100586.65
2019-06-08T23:54:50.321Z,100586.65
2019-06-08T23:57:18.055Z,100584.56
2019-06-08T23:59:47.735Z,100582.50
